createdAt,value
2018-09-07T00:01:28.314Z,31.73
2018-09-07T00:06:28.393Z,30.83
2018-09-07T00:08:55.729Z,30.90
2018-09-07T00:11:23.162Z,29.63
2018-09-07T00:13:50.521Z,29.27
2018-09-07T00:16:21.468Z,31.80
2018-09-07T00:18:51.578Z,27.07
2018-09-07T00:21:18.863Z,30.90
2018-09-07T00:23:46.228Z,28.53
2018-09-07T00:26:16.354Z,29.37
2018-09-07T00:28:43.711Z,31.27
2018-09-07T00:31:10.947Z,31.03
2018-09-07T00:33:40.998Z,32.93
2018-09-07T00:36:08.307Z,33.77
2018-09-07T00:38:35.557Z,27.67
2018-09-07T00:41:02.843Z,32.17
2018-09-07T00:43:30.400Z,34.97
2018-09-07T00:46:01.283Z,31.30
2018-09-07T00:48:28.693Z,34.17
2018-09-07T00:50:55.900Z,36.70
2018-09-07T00:53:23.116Z,39.27
2018-09-07T00:55:53.520Z,37.40
2018-09-07T00:58:20.760Z,37.40
2018-09-07T01:00:48.131Z,39.40
2018-09-07T01:03:15.429Z,34.20
2018-09-07T01:05:44.432Z,38.10
2018-09-07T01:08:11.733Z,41.43
2018-09-07T01:10:39.012Z,41.53
2018-09-07T01:13:06.248Z,41.47
2018-09-07T01:15:33.501Z,39.57
2018-09-07T01:18:00.767Z,38.43
2018-09-07T01:20:28.022Z,41.40
2018-09-07T01:22:55.241Z,40.57
2018-09-07T01:25:22.469Z,43.00
2018-09-07T01:27:49.802Z,43.80
2018-09-07T01:30:17.068Z,44.33
2018-09-07T01:32:50.072Z,43.70
2018-09-07T01:35:17.297Z,47.87
2018-09-07T01:37:50.277Z,42.93
2018-09-07T01:40:17.474Z,43.43
2018-09-07T01:42:44.765Z,39.20
2018-09-07T01:45:12.012Z,41.03
2018-09-07T01:47:39.265Z,41.27
2018-09-07T01:50:06.523Z,42.77
2018-09-07T01:52:35.141Z,42.50
2018-09-07T01:55:03.228Z,38.20
2018-09-07T01:57:30.541Z,42.70
2018-09-07T01:59:57.763Z,35.90
2018-09-07T02:02:25.024Z,44.70
2018-09-07T02:04:52.273Z,37.73
2018-09-07T02:07:19.510Z,41.17
2018-09-07T02:09:46.744Z,41.30
2018-09-07T02:12:13.988Z,44.40
2018-09-07T02:14:41.317Z,43.00
2018-09-07T02:17:08.668Z,42.97
2018-09-07T02:19:35.905Z,46.40
2018-09-07T02:22:03.158Z,58.87
2018-09-07T02:24:31.044Z,48.17
2018-09-07T02:26:58.272Z,50.00
2018-09-07T02:29:25.566Z,48.80
2018-09-07T02:31:52.825Z,52.63
2018-09-07T02:34:20.091Z,52.70
2018-09-07T02:36:47.312Z,51.77
2018-09-07T02:39:14.533Z,53.10
2018-09-07T02:41:41.785Z,56.00
2018-09-07T02:44:09.034Z,49.03
2018-09-07T02:46:36.337Z,51.73
2018-09-07T02:49:05.612Z,51.10
2018-09-07T02:51:32.969Z,54.63
2018-09-07T02:54:00.273Z,46.93
2018-09-07T02:56:27.834Z,48.43
2018-09-07T02:58:55.082Z,46.03
2018-09-07T03:01:22.540Z,45.80
2018-09-07T03:03:50.220Z,41.37
2018-09-07T03:06:17.512Z,42.03
2018-09-07T03:08:44.715Z,37.23
2018-09-07T03:11:11.956Z,37.93
2018-09-07T03:13:39.199Z,42.07
2018-09-07T03:16:06.436Z,37.50
2018-09-07T03:18:33.676Z,45.13
2018-09-07T03:21:01.084Z,38.97
2018-09-07T03:23:28.406Z,41.70
2018-09-07T03:25:55.613Z,40.27
2018-09-07T03:28:22.956Z,41.77
2018-09-07T03:30:50.297Z,41.93
2018-09-07T03:33:17.519Z,41.27
2018-09-07T03:35:44.768Z,38.40
2018-09-07T03:38:12.108Z,39.23
2018-09-07T03:40:39.368Z,37.70
2018-09-07T03:43:06.629Z,46.93
2018-09-07T03:45:33.901Z,49.53
2018-09-07T03:48:01.366Z,45.60
2018-09-07T03:50:28.626Z,49.03
2018-09-07T03:52:55.994Z,47.53
2018-09-07T03:55:23.247Z,54.63
2018-09-07T03:57:51.629Z,46.70
2018-09-07T04:00:19.155Z,45.97
2018-09-07T04:02:51.231Z,46.53
2018-09-07T04:05:18.601Z,49.77
2018-09-07T04:07:45.860Z,42.77
2018-09-07T04:10:13.160Z,53.97
2018-09-07T04:12:40.445Z,46.67
2018-09-07T04:15:07.741Z,45.50
2018-09-07T04:17:35.048Z,43.30
2018-09-07T04:20:02.367Z,41.70
2018-09-07T04:22:30.389Z,42.47
2018-09-07T04:24:57.650Z,49.00
2018-09-07T04:27:24.927Z,48.30
2018-09-07T04:29:52.236Z,47.03
2018-09-07T04:32:25.757Z,39.70
2018-09-07T04:34:53.009Z,41.20
2018-09-07T04:37:20.279Z,41.03
2018-09-07T04:39:47.537Z,46.43
2018-09-07T04:42:14.922Z,45.77
2018-09-07T04:44:42.198Z,44.80
2018-09-07T04:47:09.670Z,51.30
2018-09-07T04:49:36.953Z,47.67
2018-09-07T04:52:04.237Z,45.80
2018-09-07T04:54:31.674Z,47.87
2018-09-07T04:56:58.932Z,44.60
2018-09-07T04:59:31.214Z,41.80
2018-09-07T05:01:58.478Z,47.80
2018-09-07T05:04:25.785Z,45.60
2018-09-07T05:06:53.733Z,47.67
2018-09-07T05:09:20.992Z,49.30
2018-09-07T05:11:48.297Z,49.03
2018-09-07T05:14:17.215Z,42.13
2018-09-07T05:16:44.529Z,47.50
2018-09-07T05:19:11.804Z,45.87
2018-09-07T05:21:39.075Z,51.10
2018-09-07T05:24:10.162Z,44.87
2018-09-07T05:26:37.425Z,39.67
2018-09-07T05:29:04.680Z,45.50
2018-09-07T05:31:32.862Z,41.67
2018-09-07T05:34:00.180Z,41.27
2018-09-07T05:39:05.238Z,45.87
2018-09-07T05:41:32.629Z,44.00
2018-09-07T05:43:59.956Z,45.80
2018-09-07T05:46:27.920Z,42.47
2018-09-07T05:48:55.182Z,47.20
2018-09-07T05:51:22.504Z,41.17
2018-09-07T05:53:49.753Z,37.80
2018-09-07T05:56:18.764Z,37.20
2018-09-07T05:58:46.032Z,38.90
2018-09-07T06:01:13.345Z,35.87
2018-09-07T06:03:40.641Z,40.13
2018-09-07T06:06:07.920Z,37.50
2018-09-07T06:08:35.249Z,38.90
2018-09-07T06:11:02.537Z,37.93
2018-09-07T06:13:29.864Z,35.60
2018-09-07T06:15:57.140Z,33.23
2018-09-07T06:18:24.401Z,32.80
2018-09-07T06:20:51.740Z,34.00
2018-09-07T06:23:19.031Z,34.53
2018-09-07T06:25:46.310Z,34.77
2018-09-07T06:28:18.837Z,34.57
2018-09-07T06:30:46.121Z,28.10
2018-09-07T06:33:13.635Z,28.37
2018-09-07T06:35:42.325Z,30.10
2018-09-07T06:38:09.597Z,26.87
2018-09-07T06:40:36.872Z,27.17
2018-09-07T06:43:04.256Z,28.10
2018-09-07T06:45:31.627Z,27.60
2018-09-07T06:47:58.974Z,23.60
2018-09-07T06:50:26.309Z,27.90
2018-09-07T06:52:53.784Z,27.00
2018-09-07T06:55:21.095Z,23.50
2018-09-07T06:57:48.412Z,26.30
2018-09-07T07:00:17.733Z,22.90
2018-09-07T07:02:45.157Z,20.30
2018-09-07T07:05:12.497Z,24.23
2018-09-07T07:07:39.884Z,27.50
2018-09-07T07:10:11.790Z,22.57
2018-09-07T07:12:39.152Z,22.13
2018-09-07T07:15:06.581Z,26.40
2018-09-07T07:17:33.982Z,23.20
2018-09-07T07:20:01.412Z,25.43
2018-09-07T07:22:28.709Z,24.20
2018-09-07T07:24:56.077Z,24.50
2018-09-07T07:27:23.362Z,24.20
2018-09-07T07:29:50.632Z,23.17
2018-09-07T07:32:18.037Z,23.90
2018-09-07T07:34:45.277Z,25.47
2018-09-07T07:37:12.682Z,17.80
2018-09-07T07:39:39.855Z,20.10
2018-09-07T07:42:07.263Z,26.83
2018-09-07T07:44:34.558Z,22.00
2018-09-07T07:47:01.853Z,19.43
2018-09-07T07:49:29.216Z,17.87
2018-09-07T07:51:56.468Z,21.87
2018-09-07T07:54:23.752Z,18.40
2018-09-07T07:56:51.422Z,20.83
2018-09-07T07:59:18.750Z,20.40
2018-09-07T08:01:49.941Z,21.47
2018-09-07T08:04:17.345Z,20.60
2018-09-07T08:06:44.665Z,22.03
2018-09-07T08:09:11.978Z,22.40
2018-09-07T08:11:39.424Z,19.23
2018-09-07T08:14:06.745Z,20.17
2018-09-07T08:16:34.156Z,20.90
2018-09-07T08:21:37.768Z,20.10
2018-09-07T08:24:05.017Z,21.60
2018-09-07T08:26:32.456Z,23.97
2018-09-07T08:28:59.842Z,21.37
2018-09-07T08:31:27.096Z,24.10
2018-09-07T08:33:57.929Z,24.50
2018-09-07T08:36:25.264Z,24.07
2018-09-07T08:38:53.016Z,25.47
2018-09-07T08:41:20.336Z,23.63
2018-09-07T08:43:47.615Z,24.83
2018-09-07T08:46:20.546Z,21.57
2018-09-07T08:48:48.060Z,26.10
2018-09-07T08:51:15.336Z,23.30
2018-09-07T08:53:42.592Z,22.93
2018-09-07T08:56:10.209Z,24.70
2018-09-07T08:58:37.408Z,22.87
2018-09-07T09:01:04.905Z,17.60
2018-09-07T09:03:34.090Z,18.70
2018-09-07T09:06:01.574Z,18.10
2018-09-07T09:08:28.826Z,16.63
2018-09-07T09:10:56.217Z,12.33
2018-09-07T09:13:23.446Z,15.03
2018-09-07T09:15:50.841Z,15.43
2018-09-07T09:18:22.790Z,12.20
2018-09-07T09:20:50.080Z,13.77
2018-09-07T09:23:17.341Z,15.77
2018-09-07T09:25:44.608Z,12.00
2018-09-07T09:28:11.886Z,13.10
2018-09-07T09:30:39.477Z,14.67
2018-09-07T09:33:10.713Z,13.33
2018-09-07T09:35:38.113Z,14.30
2018-09-07T09:38:05.453Z,12.97
2018-09-07T09:40:32.790Z,15.20
2018-09-07T09:43:00.122Z,15.20
2018-09-07T09:45:32.668Z,15.70
2018-09-07T09:48:00.184Z,16.03
2018-09-07T09:50:27.592Z,14.93
2018-09-07T09:52:55.031Z,18.97
2018-09-07T09:55:22.293Z,15.53
2018-09-07T09:57:49.589Z,16.40
2018-09-07T10:00:24.907Z,18.70
2018-09-07T10:02:53.674Z,17.80
2018-09-07T10:05:20.954Z,16.93
2018-09-07T10:07:48.258Z,18.37
2018-09-07T10:10:20.510Z,19.20
2018-09-07T10:12:47.799Z,20.23
2018-09-07T10:15:15.128Z,17.80
2018-09-07T10:17:42.429Z,20.70
2018-09-07T10:20:09.689Z,18.40
2018-09-07T10:22:36.977Z,17.17
2018-09-07T10:25:04.479Z,15.50
2018-09-07T10:27:33.979Z,15.47
2018-09-07T10:30:01.314Z,15.80
2018-09-07T10:32:28.634Z,15.73
2018-09-07T10:34:55.892Z,14.20
2018-09-07T10:37:23.270Z,9.33
2018-09-07T10:39:50.557Z,9.77
2018-09-07T10:42:17.862Z,10.40
2018-09-07T10:44:48.614Z,10.60
2018-09-07T10:47:16.013Z,9.33
2018-09-07T10:49:43.419Z,9.90
2018-09-07T10:52:10.689Z,8.20
2018-09-07T10:54:37.950Z,8.37
2018-09-07T10:57:05.262Z,7.43
2018-09-07T10:59:36.271Z,6.70
2018-09-07T11:02:03.637Z,6.73
2018-09-07T11:04:31.229Z,7.77
2018-09-07T11:06:58.604Z,6.63
2018-09-07T11:09:26.065Z,6.90
2018-09-07T11:11:53.365Z,6.33
2018-09-07T11:14:26.982Z,5.97
2018-09-07T11:16:54.286Z,8.33
2018-09-07T11:19:21.613Z,6.10
2018-09-07T11:21:49.015Z,5.87
2018-09-07T11:24:16.326Z,5.13
2018-09-07T11:26:43.652Z,4.77
2018-09-07T11:29:14.266Z,5.67
2018-09-07T11:31:41.536Z,5.40
2018-09-07T11:34:08.829Z,8.27
2018-09-07T11:36:36.332Z,6.10
2018-09-07T11:39:05.689Z,5.97
2018-09-07T11:41:37.228Z,6.00
2018-09-07T11:44:04.714Z,6.17
2018-09-07T11:46:32.071Z,6.13
2018-09-07T11:48:59.368Z,5.70
2018-09-07T11:51:26.708Z,5.37
2018-09-07T11:53:54.030Z,4.30
2018-09-07T11:56:21.465Z,3.20
2018-09-07T11:58:50.684Z,3.37
2018-09-07T12:01:18.138Z,4.00
2018-09-07T12:03:45.524Z,4.00
2018-09-07T12:06:13.074Z,3.83
2018-09-07T12:08:40.466Z,3.47
2018-09-07T12:11:12.418Z,6.33
2018-09-07T12:13:39.750Z,3.30
2018-09-07T12:18:41.396Z,4.90
2018-09-07T12:21:11.320Z,3.73
2018-09-07T12:23:40.917Z,3.33
2018-09-07T12:26:08.246Z,3.57
2018-09-07T12:28:35.665Z,5.37
2018-09-07T12:31:03.194Z,8.03
2018-09-07T12:33:35.250Z,4.40
2018-09-07T12:36:03.042Z,5.20
2018-09-07T12:38:30.719Z,5.40
2018-09-07T12:40:59.373Z,5.00
2018-09-07T12:43:27.108Z,4.37
2018-09-07T12:45:57.833Z,7.33
2018-09-07T12:48:25.509Z,4.73
2018-09-07T12:50:54.055Z,4.70
2018-09-07T12:53:21.584Z,3.87
2018-09-07T12:55:49.127Z,7.13
2018-09-07T12:58:21.205Z,4.00
2018-09-07T13:00:48.754Z,3.73
2018-09-07T13:03:16.230Z,3.33
2018-09-07T13:05:44.713Z,3.47
2018-09-07T13:08:14.191Z,4.50
2018-09-07T13:10:44.579Z,3.37
2018-09-07T13:13:15.578Z,4.43
2018-09-07T13:15:43.239Z,4.63
2018-09-07T13:18:10.748Z,4.80
2018-09-07T13:20:38.320Z,3.57
2018-09-07T13:23:09.304Z,5.57
2018-09-07T13:25:38.004Z,3.60
2018-09-07T13:28:05.586Z,5.43
2018-09-07T13:30:33.106Z,3.07
2018-09-07T13:33:00.602Z,2.63
2018-09-07T13:35:28.129Z,4.57
2018-09-07T13:38:00.041Z,2.47
2018-09-07T13:40:28.111Z,5.03
2018-09-07T13:42:56.437Z,2.83
2018-09-07T13:45:23.974Z,5.03
2018-09-07T13:47:51.685Z,2.37
2018-09-07T13:50:20.127Z,4.50
2018-09-07T13:52:51.012Z,5.83
2018-09-07T13:55:18.598Z,2.87
2018-09-07T13:57:48.844Z,5.47
2018-09-07T14:00:17.553Z,3.17
2018-09-07T14:02:44.993Z,4.37
2018-09-07T14:05:14.780Z,2.47
2018-09-07T14:07:42.301Z,2.90
2018-09-07T14:10:09.757Z,3.73
2018-09-07T14:12:37.189Z,3.53
2018-09-07T14:15:04.665Z,2.87
2018-09-07T14:17:37.445Z,2.17
2018-09-07T14:20:04.933Z,2.13
2018-09-07T14:22:32.442Z,2.90
2018-09-07T14:25:00.003Z,2.70
2018-09-07T14:27:27.592Z,2.40
2018-09-07T14:29:55.106Z,4.47
2018-09-07T14:32:26.907Z,3.33
2018-09-07T14:34:54.465Z,2.37
2018-09-07T14:37:22.011Z,3.57
2018-09-07T14:39:49.580Z,3.13
2018-09-07T14:42:17.122Z,4.40
2018-09-07T14:44:49.355Z,2.90
2018-09-07T14:47:16.938Z,4.90
2018-09-07T14:49:44.410Z,3.20
2018-09-07T14:52:11.978Z,2.37
2018-09-07T14:54:40.695Z,1.90
2018-09-07T14:57:08.128Z,3.27
2018-09-07T14:59:37.762Z,2.57
2018-09-07T15:02:05.744Z,2.40
2018-09-07T15:04:33.373Z,2.50
2018-09-07T15:07:01.009Z,2.00
2018-09-07T15:09:29.698Z,2.13
2018-09-07T15:12:02.789Z,3.97
2018-09-07T15:14:31.136Z,2.70
2018-09-07T15:16:59.250Z,1.60
2018-09-07T15:19:26.908Z,6.80
2018-09-07T15:21:59.024Z,2.37
2018-09-07T15:24:26.584Z,1.63
2018-09-07T15:26:54.402Z,3.07
2018-09-07T15:29:23.293Z,2.40
2018-09-07T15:31:55.627Z,2.83
2018-09-07T15:34:23.254Z,3.07
2018-09-07T15:36:51.720Z,4.17
2018-09-07T15:39:19.422Z,2.40
2018-09-07T15:41:46.920Z,2.17
2018-09-07T15:44:18.998Z,1.53
2018-09-07T15:46:46.479Z,2.13
2018-09-07T15:49:13.977Z,2.40
2018-09-07T15:51:41.454Z,1.90
2018-09-07T15:54:08.909Z,4.67
2018-09-07T15:56:36.475Z,1.70
2018-09-07T15:59:03.965Z,1.60
2018-09-07T16:01:31.564Z,2.43
2018-09-07T16:03:59.167Z,1.10
2018-09-07T16:06:26.692Z,3.53
2018-09-07T16:08:54.237Z,3.60
2018-09-07T16:11:23.834Z,2.30
2018-09-07T16:13:51.569Z,1.23
2018-09-07T16:16:19.062Z,1.70
2018-09-07T16:18:46.641Z,3.47
2018-09-07T16:21:14.265Z,1.23
2018-09-07T16:23:41.786Z,6.23
2018-09-07T16:26:14.645Z,1.87
2018-09-07T16:28:43.264Z,1.40
2018-09-07T16:31:10.933Z,3.90
2018-09-07T16:33:38.442Z,1.70
2018-09-07T16:36:06.096Z,3.57
2018-09-07T16:38:33.779Z,2.87
2018-09-07T16:41:02.413Z,2.97
2018-09-07T16:43:31.491Z,2.00
2018-09-07T16:45:59.112Z,3.50
2018-09-07T16:48:26.681Z,3.63
2018-09-07T16:50:54.169Z,1.50
2018-09-07T16:53:21.843Z,3.53
2018-09-07T16:55:49.445Z,1.60
2018-09-07T16:58:17.157Z,2.63
2018-09-07T17:00:44.742Z,2.50
2018-09-07T17:03:12.353Z,4.13
2018-09-07T17:05:40.115Z,3.13
2018-09-07T17:08:09.145Z,1.20
2018-09-07T17:10:36.684Z,2.20
2018-09-07T17:13:04.329Z,1.30
2018-09-07T17:15:31.896Z,1.40
2018-09-07T17:17:59.592Z,2.77
2018-09-07T17:20:27.377Z,5.90
2018-09-07T17:22:55.107Z,3.83
2018-09-07T17:25:23.683Z,2.13
2018-09-07T17:27:56.086Z,3.60
2018-09-07T17:30:23.607Z,1.70
2018-09-07T17:32:51.235Z,2.87
2018-09-07T17:35:18.990Z,2.90
2018-09-07T17:37:46.685Z,1.50
2018-09-07T17:40:14.202Z,1.20
2018-09-07T17:42:41.722Z,1.83
2018-09-07T17:45:09.216Z,1.73
2018-09-07T17:47:36.682Z,1.83
2018-09-07T17:50:04.344Z,3.13
2018-09-07T17:52:31.886Z,3.00
2018-09-07T17:54:59.524Z,2.17
2018-09-07T17:57:26.969Z,2.60
2018-09-07T17:59:54.459Z,2.80
2018-09-07T18:02:22.020Z,4.20
2018-09-07T18:04:49.637Z,3.53
2018-09-07T18:07:18.868Z,2.17
2018-09-07T18:09:46.420Z,2.50
2018-09-07T18:12:14.030Z,2.40
2018-09-07T18:14:41.922Z,3.33
2018-09-07T18:17:09.518Z,4.70
2018-09-07T18:19:37.125Z,2.10
2018-09-07T18:22:04.715Z,3.87
2018-09-07T18:24:33.039Z,3.13
2018-09-07T18:27:01.234Z,3.57
2018-09-07T18:29:29.645Z,2.60
2018-09-07T18:31:57.820Z,3.53
2018-09-07T18:34:26.008Z,3.10
2018-09-07T18:36:54.268Z,2.20
2018-09-07T18:39:22.623Z,4.90
2018-09-07T18:41:51.580Z,3.07
2018-09-07T18:44:19.778Z,5.10
2018-09-07T18:46:48.132Z,3.13
2018-09-07T18:49:16.512Z,1.33
2018-09-07T18:51:44.871Z,2.07
2018-09-07T18:54:13.385Z,1.80
2018-09-07T18:56:42.040Z,2.63
2018-09-07T18:59:10.541Z,2.60
2018-09-07T19:01:39.326Z,2.80
2018-09-07T19:04:07.540Z,3.63
2018-09-07T19:06:35.872Z,2.60
2018-09-07T19:09:06.613Z,4.30
2018-09-07T19:11:34.919Z,1.60
2018-09-07T19:14:03.126Z,4.03
2018-09-07T19:16:31.440Z,3.53
2018-09-07T19:18:59.862Z,2.83
2018-09-07T19:21:27.920Z,3.97
2018-09-07T19:23:56.332Z,4.47
2018-09-07T19:26:24.610Z,6.03
2018-09-07T19:28:53.199Z,5.53
2018-09-07T19:31:23.126Z,3.83
2018-09-07T19:33:51.573Z,2.27
2018-09-07T19:36:19.977Z,3.73
2018-09-07T19:38:51.463Z,4.90
2018-09-07T19:41:21.616Z,3.93
2018-09-07T19:43:50.218Z,2.53
2018-09-07T19:46:18.608Z,5.40
2018-09-07T19:48:46.920Z,4.90
2018-09-07T19:51:15.611Z,4.57
2018-09-07T19:53:44.139Z,4.00
2018-09-07T19:56:12.580Z,2.33
2018-09-07T19:58:41.078Z,3.37
2018-09-07T20:01:10.066Z,3.70
2018-09-07T20:03:38.631Z,2.73
2018-09-07T20:06:07.236Z,3.17
2018-09-07T20:08:35.550Z,3.97
2018-09-07T20:11:06.328Z,3.03
2018-09-07T20:13:35.070Z,3.27
2018-09-07T20:16:04.189Z,4.40
2018-09-07T20:18:35.000Z,3.07
2018-09-07T20:21:03.626Z,4.20
2018-09-07T20:23:32.194Z,5.30
2018-09-07T20:26:00.762Z,4.27
2018-09-07T20:28:29.273Z,3.80
2018-09-07T20:30:57.043Z,2.20
2018-09-07T20:33:24.617Z,2.80
2018-09-07T20:35:52.265Z,4.17
2018-09-07T20:38:21.101Z,4.03
2018-09-07T20:40:53.543Z,2.50
2018-09-07T20:43:22.538Z,4.23
2018-09-07T20:45:50.341Z,5.07
2018-09-07T20:48:19.605Z,2.50
2018-09-07T20:50:47.356Z,3.53
2018-09-07T20:53:15.755Z,2.63
2018-09-07T20:55:43.306Z,4.03
2018-09-07T20:58:11.032Z,6.90
2018-09-07T21:00:44.409Z,3.87
2018-09-07T21:03:12.449Z,2.63
2018-09-07T21:05:40.117Z,4.10
2018-09-07T21:08:07.852Z,4.83
2018-09-07T21:10:39.428Z,6.03
2018-09-07T21:13:07.819Z,4.50
2018-09-07T21:15:35.547Z,2.27
2018-09-07T21:18:03.220Z,3.23
2018-09-07T21:20:30.935Z,2.70
2018-09-07T21:25:31.928Z,7.63
2018-09-07T21:28:00.590Z,3.83
2018-09-07T21:30:28.130Z,5.23
2018-09-07T21:32:56.486Z,5.50
2018-09-07T21:35:24.453Z,5.40
2018-09-07T21:37:52.260Z,4.90
2018-09-07T21:40:20.192Z,5.00
2018-09-07T21:42:48.280Z,4.60
2018-09-07T21:45:15.880Z,4.37
2018-09-07T21:47:43.488Z,4.27
2018-09-07T21:50:11.415Z,4.87
2018-09-07T21:52:38.935Z,3.33
2018-09-07T21:55:06.688Z,3.63
2018-09-07T21:57:34.133Z,2.50
2018-09-07T22:00:02.078Z,2.70
2018-09-07T22:02:29.773Z,3.40
2018-09-07T22:04:58.418Z,3.07
2018-09-07T22:07:32.990Z,3.40
2018-09-07T22:10:00.596Z,2.93
2018-09-07T22:12:28.098Z,2.47
2018-09-07T22:14:56.843Z,2.57
2018-09-07T22:17:24.517Z,3.20
2018-09-07T22:19:52.574Z,5.23
2018-09-07T22:22:20.174Z,3.80
2018-09-07T22:24:47.826Z,2.43
2018-09-07T22:27:15.599Z,4.50
2018-09-07T22:29:43.465Z,2.77
2018-09-07T22:32:11.521Z,3.70
2018-09-07T22:34:39.108Z,3.77
2018-09-07T22:37:07.589Z,3.60
2018-09-07T22:39:35.195Z,2.50
2018-09-07T22:42:03.012Z,1.27
2018-09-07T22:44:30.811Z,2.53
2018-09-07T22:46:58.472Z,1.67
2018-09-07T22:49:26.047Z,3.30
2018-09-07T22:51:53.640Z,2.83
2018-09-07T22:54:21.126Z,3.13
2018-09-07T22:56:50.080Z,2.33
2018-09-07T22:59:17.562Z,1.73
2018-09-07T23:01:45.091Z,3.20
2018-09-07T23:04:12.735Z,3.30
2018-09-07T23:06:45.947Z,2.97
2018-09-07T23:09:13.430Z,1.77
2018-09-07T23:11:40.941Z,1.67
2018-09-07T23:14:08.849Z,2.27
2018-09-07T23:16:36.301Z,2.63
2018-09-07T23:19:03.892Z,4.20
2018-09-07T23:21:31.625Z,3.33
2018-09-07T23:23:59.247Z,1.87
2018-09-07T23:26:28.160Z,4.27
2018-09-07T23:28:55.740Z,4.60
2018-09-07T23:31:23.302Z,3.40
2018-09-07T23:33:51.046Z,8.33
2018-09-07T23:36:18.870Z,3.37
2018-09-07T23:38:46.500Z,3.10
2018-09-07T23:41:14.137Z,3.45
2018-09-07T23:43:41.776Z,1.97
2018-09-07T23:46:09.467Z,3.50
2018-09-07T23:48:37.317Z,3.43
2018-09-07T23:51:04.962Z,2.10
2018-09-07T23:53:32.808Z,4.33
2018-09-07T23:56:00.571Z,3.30
2018-09-07T23:58:28.237Z,2.33
